createdAt,value
2023-02-13T00:05:27.145Z,17.23
2023-02-13T00:08:18.402Z,17.00
2023-02-13T00:13:59.580Z,17.48
2023-02-13T00:16:52.256Z,17.62
2023-02-13T00:19:43.735Z,18.37
2023-02-13T00:22:38.907Z,17.98
2023-02-13T00:25:31.891Z,18.25
2023-02-13T00:28:23.396Z,18.95
2023-02-13T00:33:56.753Z,17.55
2023-02-13T00:52:41.853Z,19.37
2023-02-13T00:55:35.416Z,18.20
2023-02-13T00:58:27.712Z,18.73
2023-02-13T01:01:19.108Z,18.67
2023-02-13T01:04:10.411Z,18.25
2023-02-13T01:10:20.067Z,18.52
2023-02-13T01:13:15.931Z,18.60
2023-02-13T01:18:49.516Z,19.23
2023-02-13T01:21:40.985Z,18.10
2023-02-13T01:24:34.397Z,18.15
2023-02-13T01:27:25.830Z,17.60
2023-02-13T01:30:20.849Z,17.52
2023-02-13T01:39:59.364Z,17.00
2023-02-13T01:42:50.698Z,17.73
2023-02-13T01:49:00.282Z,21.42
2023-02-13T01:54:38.854Z,17.55
2023-02-13T01:57:33.092Z,17.50
2023-02-13T02:00:26.188Z,17.10
2023-02-13T02:06:08.858Z,17.23
2023-02-13T02:09:03.303Z,16.75
2023-02-13T02:11:58.899Z,17.50
2023-02-13T02:14:50.854Z,16.93
2023-02-13T02:20:34.258Z,16.85
2023-02-13T02:27:10.816Z,17.55
2023-02-13T02:30:38.867Z,17.23
2023-02-13T02:33:36.982Z,17.30
2023-02-13T02:36:36.840Z,15.93
2023-02-13T02:42:18.334Z,16.02
2023-02-13T02:45:14.256Z,17.05
2023-02-13T02:48:26.902Z,16.02
2023-02-13T03:08:53.332Z,16.07
2023-02-13T03:14:29.998Z,16.50
2023-02-13T03:17:39.455Z,16.30
2023-02-13T03:20:57.795Z,16.55
2023-02-13T03:26:50.842Z,16.30
2023-02-13T03:30:05.431Z,16.23
2023-02-13T03:33:03.795Z,16.85
2023-02-13T03:38:48.869Z,17.73
2023-02-13T03:57:45.564Z,16.75
2023-02-13T04:03:35.045Z,14.58
2023-02-13T04:06:30.079Z,15.50
2023-02-13T04:09:21.605Z,16.05
2023-02-13T04:15:45.191Z,19.57
2023-02-13T04:18:34.517Z,16.60
2023-02-13T04:21:26.202Z,14.83
2023-02-13T04:24:26.427Z,15.13
2023-02-13T04:27:19.072Z,15.00
2023-02-13T04:30:12.885Z,15.15
2023-02-13T04:33:04.146Z,14.60
2023-02-13T04:39:38.446Z,15.55
2023-02-13T04:42:29.771Z,15.48
2023-02-13T04:45:21.577Z,15.95
2023-02-13T04:48:12.920Z,16.05
2023-02-13T04:51:04.419Z,14.80
2023-02-13T04:56:41.757Z,14.90
2023-02-13T04:59:33.050Z,14.73
2023-02-13T05:02:24.742Z,15.00
2023-02-13T05:05:16.534Z,14.63
2023-02-13T05:08:09.640Z,13.25
2023-02-13T05:16:25.267Z,13.60
2023-02-13T05:19:16.710Z,13.80
2023-02-13T05:24:49.449Z,13.70
2023-02-13T05:27:41.055Z,13.72
2023-02-13T05:30:32.691Z,13.45
2023-02-13T05:33:24.080Z,14.30
2023-02-13T05:36:15.717Z,13.62
2023-02-13T05:42:00.718Z,14.00
2023-02-13T05:44:52.157Z,13.13
2023-02-13T05:47:43.638Z,14.18
2023-02-13T05:50:35.057Z,13.93
2023-02-13T05:53:26.590Z,13.30
2023-02-13T05:56:17.898Z,13.20
2023-02-13T05:59:09.989Z,13.55
2023-02-13T06:02:01.313Z,12.93
2023-02-13T06:04:52.937Z,13.38
2023-02-13T06:07:44.270Z,14.00
2023-02-13T06:10:35.573Z,13.48
2023-02-13T06:13:27.562Z,12.78
2023-02-13T06:19:01.833Z,12.70
2023-02-13T06:21:53.519Z,13.18
2023-02-13T06:27:34.383Z,12.80
2023-02-13T06:30:26.906Z,13.08
2023-02-13T06:33:18.374Z,12.75
2023-02-13T06:39:02.290Z,13.60
2023-02-13T06:44:44.125Z,13.83
2023-02-13T06:47:35.966Z,13.32
2023-02-13T06:50:27.803Z,12.15
2023-02-13T06:56:17.045Z,12.93
2023-02-13T06:59:08.714Z,13.38
2023-02-13T07:04:51.752Z,13.80
2023-02-13T07:10:31.121Z,13.35
2023-02-13T07:13:21.933Z,13.10
2023-02-13T07:19:33.431Z,12.47
2023-02-13T07:25:06.035Z,13.25
2023-02-13T07:27:57.722Z,11.83
2023-02-13T07:33:28.555Z,12.60
2023-02-13T07:39:08.284Z,12.82
2023-02-13T07:44:45.632Z,13.75
2023-02-13T07:47:37.245Z,12.93
2023-02-13T07:53:09.242Z,13.00
2023-02-13T07:59:14.042Z,13.53
2023-02-13T08:15:30.507Z,12.33
2023-02-13T08:35:12.762Z,13.03
2023-02-13T08:38:06.384Z,12.53
2023-02-13T08:41:04.903Z,12.65
2023-02-13T08:43:57.193Z,12.90
2023-02-13T08:46:48.624Z,13.30
2023-02-13T08:49:42.948Z,12.65
2023-02-13T08:52:35.691Z,13.32
2023-02-13T08:55:31.831Z,12.78
2023-02-13T08:58:26.694Z,13.05
2023-02-13T09:01:18.702Z,13.13
2023-02-13T09:04:10.630Z,13.53
2023-02-13T09:07:03.713Z,12.43
2023-02-13T09:09:55.963Z,11.80
2023-02-13T09:12:56.873Z,11.63
2023-02-13T09:15:48.130Z,11.53
2023-02-13T09:21:29.957Z,10.80
2023-02-13T09:24:24.273Z,10.68
2023-02-13T09:27:17.690Z,10.98
2023-02-13T09:30:11.928Z,10.98
2023-02-13T09:49:26.000Z,13.65
2023-02-13T09:54:58.237Z,12.00
2023-02-13T10:00:45.037Z,11.12
2023-02-13T10:06:31.926Z,11.63
2023-02-13T10:09:31.172Z,10.70
2023-02-13T10:15:25.538Z,12.05
2023-02-13T10:18:21.171Z,10.48
2023-02-13T10:21:18.851Z,10.65
2023-02-13T10:24:14.776Z,9.73
2023-02-13T10:30:09.784Z,9.65
2023-02-13T10:50:56.346Z,9.13
2023-02-13T10:56:49.060Z,9.23
2023-02-13T10:59:59.636Z,9.08
2023-02-13T11:02:51.729Z,8.37
2023-02-13T11:05:44.802Z,8.93
2023-02-13T11:08:38.552Z,7.85
2023-02-13T11:11:34.856Z,8.28
2023-02-13T11:14:28.322Z,8.10
2023-02-13T11:17:21.161Z,7.05
2023-02-13T11:20:33.737Z,7.53
2023-02-13T11:23:42.245Z,7.50
2023-02-13T11:26:36.821Z,7.30
2023-02-13T11:32:49.381Z,7.45
2023-02-13T11:35:41.831Z,8.23
2023-02-13T11:38:33.657Z,8.33
2023-02-13T11:41:28.366Z,7.78
2023-02-13T11:50:26.991Z,6.78
2023-02-13T11:53:23.900Z,6.17
2023-02-13T11:59:35.491Z,5.40
2023-02-13T12:02:28.443Z,5.97
2023-02-13T12:05:22.200Z,6.60
2023-02-13T12:08:14.231Z,6.42
2023-02-13T12:11:09.788Z,6.33
2023-02-13T12:14:01.686Z,5.72
2023-02-13T12:19:38.005Z,5.37
2023-02-13T12:22:36.206Z,5.25
2023-02-13T12:35:45.974Z,6.15
2023-02-13T12:38:55.328Z,5.92
2023-02-13T12:41:55.288Z,5.42
2023-02-13T12:48:07.311Z,5.83
2023-02-13T12:54:03.010Z,5.78
2023-02-13T12:57:11.543Z,6.42
2023-02-13T13:00:18.802Z,6.80
2023-02-13T13:03:27.674Z,6.62
2023-02-13T13:06:46.242Z,6.53
2023-02-13T13:13:42.672Z,6.20
2023-02-13T13:16:40.782Z,6.62
2023-02-13T13:25:07.458Z,6.87
2023-02-13T13:28:03.429Z,6.28
2023-02-13T13:33:38.512Z,5.40
2023-02-13T13:36:37.708Z,5.40
2023-02-13T13:44:02.870Z,4.28
2023-02-13T13:49:42.263Z,4.42
2023-02-13T13:52:37.655Z,4.78
2023-02-13T13:56:20.498Z,4.60
2023-02-13T14:02:53.576Z,4.30
2023-02-13T14:09:42.322Z,5.15
2023-02-13T14:12:46.020Z,4.83
2023-02-13T14:15:56.059Z,4.70
2023-02-13T14:21:34.626Z,4.90
2023-02-13T14:24:27.596Z,4.90
2023-02-13T14:27:26.123Z,4.90
2023-02-13T14:30:31.709Z,5.17
2023-02-13T14:33:30.185Z,5.15
2023-02-13T14:36:28.871Z,5.67
2023-02-13T14:39:27.882Z,4.55
2023-02-13T14:42:28.221Z,4.70
2023-02-13T14:45:23.480Z,4.97
2023-02-13T14:48:17.176Z,5.30
2023-02-13T14:51:11.813Z,4.85
2023-02-13T14:54:10.666Z,5.25
2023-02-13T14:57:11.527Z,4.92
2023-02-13T15:00:07.489Z,4.92
2023-02-13T15:03:02.540Z,5.37
2023-02-13T15:05:57.150Z,5.40
2023-02-13T15:08:52.139Z,5.22
2023-02-13T15:11:45.612Z,5.80
2023-02-13T15:14:38.664Z,5.33
2023-02-13T15:20:27.540Z,5.53
2023-02-13T15:23:23.273Z,5.67
2023-02-13T15:26:24.266Z,6.15
2023-02-13T15:29:29.259Z,5.72
2023-02-13T15:32:27.418Z,5.90
2023-02-13T15:35:26.048Z,5.80
2023-02-13T15:38:28.101Z,5.70
2023-02-13T15:41:23.179Z,6.40
2023-02-13T15:44:21.145Z,5.70
2023-02-13T15:47:18.043Z,5.42
2023-02-13T15:50:19.406Z,6.08
2023-02-13T15:53:18.071Z,5.78
2023-02-13T15:56:15.836Z,5.15
2023-02-13T15:59:07.581Z,5.87
2023-02-13T16:02:20.707Z,5.62
2023-02-13T16:05:16.252Z,6.00
2023-02-13T16:08:30.332Z,5.55
2023-02-13T16:11:34.071Z,5.80
2023-02-13T16:14:27.057Z,5.95
2023-02-13T16:17:21.502Z,5.90
2023-02-13T16:20:21.832Z,6.15
2023-02-13T16:23:21.185Z,5.90
2023-02-13T16:26:16.779Z,5.90
2023-02-13T16:29:12.463Z,8.48
2023-02-13T16:32:11.459Z,6.60
2023-02-13T16:35:29.508Z,6.45
2023-02-13T16:41:35.170Z,7.75
2023-02-13T16:44:30.296Z,7.87
2023-02-13T16:47:26.962Z,9.40
2023-02-13T16:50:19.239Z,9.35
2023-02-13T16:56:06.098Z,5.90
2023-02-13T16:59:12.920Z,6.33
2023-02-13T17:05:00.252Z,6.42
2023-02-13T17:07:53.383Z,6.85
2023-02-13T17:27:02.657Z,6.87
2023-02-13T17:29:54.470Z,7.45
2023-02-13T17:32:47.966Z,7.10
2023-02-13T17:35:41.885Z,6.95
2023-02-13T17:38:34.635Z,7.80
2023-02-13T17:41:25.986Z,8.15
2023-02-13T17:44:17.672Z,6.15
2023-02-13T17:53:42.988Z,7.92
2023-02-13T17:56:34.468Z,6.85
2023-02-13T17:59:27.528Z,6.65
2023-02-13T18:02:21.586Z,6.80
2023-02-13T18:05:13.694Z,6.92
2023-02-13T18:11:20.723Z,7.78
2023-02-13T18:14:12.477Z,7.67
2023-02-13T18:19:48.275Z,9.90
2023-02-13T18:22:43.022Z,14.28
2023-02-13T18:28:44.303Z,10.10
2023-02-13T18:34:16.592Z,6.00
2023-02-13T18:37:09.623Z,6.35
2023-02-13T18:40:02.916Z,7.15
2023-02-13T18:42:57.713Z,6.25
2023-02-13T18:46:15.706Z,6.20
2023-02-13T18:49:07.470Z,6.97
2023-02-13T18:51:59.358Z,6.10
2023-02-13T18:54:51.881Z,6.62
2023-02-13T18:57:45.294Z,6.67
2023-02-13T19:03:29.490Z,5.90
2023-02-13T19:06:23.854Z,5.15
2023-02-13T19:09:15.645Z,5.25
2023-02-13T19:12:07.993Z,4.70
2023-02-13T19:14:59.682Z,4.90
2023-02-13T19:17:51.044Z,5.25
2023-02-13T19:23:29.337Z,5.28
2023-02-13T19:58:27.746Z,5.75
2023-02-13T20:01:21.285Z,7.70
2023-02-13T20:04:13.176Z,7.22
2023-02-13T20:07:05.922Z,7.12
2023-02-13T20:09:57.675Z,8.43
2023-02-13T20:12:50.970Z,7.03
2023-02-13T20:18:28.515Z,7.47
2023-02-13T20:21:20.882Z,7.03
2023-02-13T20:24:14.368Z,7.22
2023-02-13T20:27:06.075Z,7.28
2023-02-13T20:32:54.571Z,8.40
2023-02-13T20:39:18.353Z,7.05
2023-02-13T20:42:09.800Z,7.25
2023-02-13T20:45:01.390Z,8.05
2023-02-13T20:47:54.530Z,7.97
2023-02-13T20:53:32.958Z,7.85
2023-02-13T20:59:09.172Z,10.03
2023-02-13T21:02:00.651Z,8.95
2023-02-13T21:04:52.947Z,8.63
2023-02-13T21:07:44.809Z,9.20
2023-02-13T21:13:19.636Z,10.13
2023-02-13T21:16:13.950Z,9.10
2023-02-13T21:19:07.738Z,9.45
2023-02-13T21:22:00.603Z,9.65
2023-02-13T21:24:53.749Z,9.68
2023-02-13T21:27:45.684Z,10.48
2023-02-13T21:30:39.969Z,10.05
2023-02-13T21:33:31.171Z,10.70
2023-02-13T21:36:22.704Z,10.15
2023-02-13T21:41:55.832Z,10.48
2023-02-13T21:44:49.407Z,10.82
2023-02-13T21:47:41.544Z,11.10
2023-02-13T21:50:34.928Z,9.50
2023-02-13T21:53:26.469Z,10.25
2023-02-13T21:56:21.958Z,9.95
2023-02-13T22:02:00.338Z,9.93
2023-02-13T22:04:52.142Z,9.65
2023-02-13T22:08:01.417Z,9.70
2023-02-13T22:10:57.494Z,9.60
2023-02-13T22:16:34.700Z,9.73
2023-02-13T22:19:26.717Z,9.20
2023-02-13T22:22:20.610Z,9.75
2023-02-13T22:28:05.279Z,9.40
2023-02-13T22:30:56.923Z,9.80
2023-02-13T22:34:02.884Z,9.75
2023-02-13T22:36:45.783Z,9.48
2023-02-13T22:39:39.868Z,10.48
2023-02-13T22:42:31.797Z,10.25
2023-02-13T22:48:03.119Z,9.80
2023-02-13T22:53:33.960Z,9.05
2023-02-13T22:56:25.834Z,9.13
2023-02-13T23:01:58.171Z,9.00
2023-02-13T23:04:50.856Z,10.25
2023-02-13T23:07:42.446Z,9.58
2023-02-13T23:10:33.858Z,10.15
2023-02-13T23:13:26.678Z,11.00
2023-02-13T23:16:18.391Z,11.40
2023-02-13T23:19:10.180Z,12.03
2023-02-13T23:22:02.427Z,11.05
2023-02-13T23:24:53.827Z,12.23
2023-02-13T23:27:46.341Z,11.38
2023-02-13T23:33:23.517Z,12.93
2023-02-13T23:36:14.910Z,11.95
2023-02-13T23:39:06.375Z,11.28
2023-02-13T23:41:57.545Z,11.12
2023-02-13T23:44:49.221Z,11.55
2023-02-13T23:47:40.849Z,10.78
2023-02-13T23:50:35.304Z,12.28
2023-02-13T23:53:27.156Z,10.93
2023-02-13T23:56:19.331Z,11.35
